createdAt,value
2023-02-15T00:01:39.757Z,1.39
2023-02-15T00:05:03.620Z,1.45
2023-02-15T00:08:27.791Z,1.50
2023-02-15T00:11:51.598Z,1.56
2023-02-15T00:15:15.442Z,1.65
2023-02-15T00:18:41.060Z,1.77
2023-02-15T00:22:05.891Z,1.86
2023-02-15T00:25:30.060Z,1.93
2023-02-15T00:28:54.820Z,2.00
2023-02-15T00:32:18.654Z,2.09
2023-02-15T00:35:42.460Z,2.13
2023-02-15T00:39:06.914Z,2.17
2023-02-15T00:42:30.173Z,2.19
2023-02-15T00:45:53.792Z,2.18
2023-02-15T00:49:17.391Z,2.15
2023-02-15T00:52:40.920Z,2.13
2023-02-15T00:56:05.048Z,2.10
2023-02-15T00:59:29.123Z,2.09
2023-02-15T01:02:52.859Z,2.05
2023-02-15T01:06:19.656Z,2.03
2023-02-15T01:09:44.593Z,2.02
2023-02-15T01:13:08.685Z,2.04
2023-02-15T01:16:34.261Z,2.04
2023-02-15T01:19:59.782Z,2.05
2023-02-15T01:23:23.256Z,2.10
2023-02-15T01:26:46.861Z,2.14
2023-02-15T01:30:12.434Z,2.20
2023-02-15T01:33:36.988Z,2.28
2023-02-15T01:37:00.250Z,2.32
2023-02-15T01:40:25.009Z,2.39
2023-02-15T01:43:52.410Z,2.44
2023-02-15T01:47:21.262Z,2.49
2023-02-15T01:50:49.291Z,2.50
2023-02-15T01:54:20.783Z,2.51
2023-02-15T01:57:48.709Z,2.52
2023-02-15T02:01:12.438Z,2.51
2023-02-15T02:04:44.631Z,2.47
2023-02-15T02:08:10.240Z,2.45
2023-02-15T02:11:35.232Z,2.43
2023-02-15T02:15:00.080Z,2.42
2023-02-15T02:18:40.415Z,2.41
2023-02-15T02:22:43.961Z,2.42
2023-02-15T02:26:52.175Z,2.40
2023-02-15T02:30:46.403Z,2.41
2023-02-15T02:34:18.689Z,2.46
2023-02-15T02:37:52.738Z,2.52
2023-02-15T02:41:26.378Z,2.56
2023-02-15T02:44:55.660Z,2.63
2023-02-15T02:48:24.467Z,2.67
2023-02-15T02:51:48.301Z,2.71
2023-02-15T02:55:20.955Z,2.73
2023-02-15T02:58:51.657Z,2.71
2023-02-15T03:02:19.620Z,2.72
2023-02-15T03:05:47.226Z,2.69
2023-02-15T03:09:18.364Z,2.65
2023-02-15T03:12:43.046Z,2.63
2023-02-15T03:16:29.215Z,2.61
2023-02-15T03:19:56.689Z,2.58
2023-02-15T03:23:26.148Z,2.55
2023-02-15T03:26:52.932Z,2.50
2023-02-15T03:30:19.888Z,2.47
2023-02-15T03:33:56.093Z,2.45
2023-02-15T03:37:30.034Z,2.42
2023-02-15T03:41:11.368Z,2.43
2023-02-15T03:44:44.317Z,2.47
2023-02-15T03:48:09.358Z,2.47
2023-02-15T03:51:40.176Z,2.47
2023-02-15T03:55:03.375Z,2.50
2023-02-15T03:58:45.129Z,2.54
2023-02-15T04:02:25.866Z,2.56
2023-02-15T04:05:49.201Z,2.58
2023-02-15T04:09:29.470Z,2.55
2023-02-15T04:12:52.768Z,2.46
2023-02-15T04:16:17.003Z,2.42
2023-02-15T04:19:58.677Z,2.40
2023-02-15T04:23:40.099Z,2.34
2023-02-15T04:27:07.218Z,2.29
2023-02-15T04:30:30.536Z,2.26
2023-02-15T04:33:53.850Z,2.25
2023-02-15T04:37:16.249Z,2.24
2023-02-15T04:40:39.836Z,2.21
2023-02-15T04:44:02.122Z,2.19
2023-02-15T04:47:26.108Z,2.19
2023-02-15T04:50:49.031Z,2.22
2023-02-15T04:54:11.329Z,2.27
2023-02-15T04:57:33.422Z,2.31
2023-02-15T05:00:57.067Z,2.38
2023-02-15T05:04:19.365Z,2.46
2023-02-15T05:07:41.411Z,2.51
2023-02-15T05:11:03.569Z,2.57
2023-02-15T05:14:25.792Z,2.62
2023-02-15T05:17:49.845Z,2.67
2023-02-15T05:21:14.173Z,2.67
2023-02-15T05:24:55.375Z,2.66
2023-02-15T05:28:20.173Z,2.63
2023-02-15T05:31:42.704Z,2.55
2023-02-15T05:35:06.046Z,2.48
2023-02-15T05:38:28.364Z,2.46
2023-02-15T05:41:54.574Z,2.42
2023-02-15T05:45:20.629Z,2.34
2023-02-15T05:48:43.227Z,2.25
2023-02-15T05:52:08.828Z,2.18
2023-02-15T05:55:31.762Z,2.12
2023-02-15T05:58:55.196Z,2.07
2023-02-15T06:02:19.210Z,2.03
2023-02-15T06:05:41.829Z,2.02
2023-02-15T06:09:04.308Z,2.01
2023-02-15T06:12:27.219Z,2.01
2023-02-15T06:15:50.215Z,2.02
2023-02-15T06:19:12.790Z,2.01
2023-02-15T06:22:37.525Z,1.99
2023-02-15T06:26:01.602Z,2.00
2023-02-15T06:29:25.494Z,2.03
2023-02-15T06:32:47.901Z,2.06
2023-02-15T06:36:13.278Z,2.13
2023-02-15T06:39:35.398Z,2.18
2023-02-15T06:42:58.473Z,2.22
2023-02-15T06:46:21.279Z,2.31
2023-02-15T06:49:44.142Z,2.40
2023-02-15T06:53:06.561Z,2.47
2023-02-15T06:56:28.822Z,2.52
2023-02-15T06:59:51.141Z,2.55
2023-02-15T07:03:15.752Z,2.56
2023-02-15T07:06:37.894Z,2.60
2023-02-15T07:09:59.975Z,2.62
2023-02-15T07:13:22.037Z,2.63
2023-02-15T07:16:44.209Z,2.67
2023-02-15T07:20:08.393Z,2.66
2023-02-15T07:23:30.917Z,2.66
2023-02-15T07:26:53.473Z,2.67
2023-02-15T07:30:16.365Z,2.67
2023-02-15T07:33:39.079Z,2.68
2023-02-15T07:37:01.115Z,2.68
2023-02-15T07:40:23.964Z,2.71
2023-02-15T07:43:46.913Z,2.72
2023-02-15T07:47:09.675Z,2.74
2023-02-15T07:50:32.125Z,2.76
2023-02-15T07:53:54.815Z,2.80
2023-02-15T07:57:17.112Z,2.81
2023-02-15T08:00:53.655Z,2.82
2023-02-15T08:04:16.938Z,2.82
2023-02-15T08:07:39.539Z,2.81
2023-02-15T08:11:20.769Z,2.85
2023-02-15T08:14:42.971Z,2.91
2023-02-15T08:18:05.321Z,2.96
2023-02-15T08:21:28.839Z,3.01
2023-02-15T08:24:51.217Z,3.08
2023-02-15T08:28:13.446Z,3.18
2023-02-15T08:31:37.924Z,3.25
2023-02-15T08:35:00.257Z,3.32
2023-02-15T08:38:22.195Z,3.40
2023-02-15T08:41:51.366Z,3.48
2023-02-15T08:45:14.103Z,3.55
2023-02-15T08:48:36.531Z,3.57
2023-02-15T08:51:59.112Z,3.58
2023-02-15T08:55:21.673Z,3.62
2023-02-15T08:58:44.294Z,3.64
2023-02-15T09:02:06.730Z,3.67
2023-02-15T09:05:29.174Z,3.69
2023-02-15T09:08:51.403Z,3.71
2023-02-15T09:12:13.910Z,3.71
2023-02-15T09:15:37.843Z,3.73
2023-02-15T09:19:01.925Z,3.72
2023-02-15T09:22:24.482Z,3.80
2023-02-15T09:25:47.134Z,3.81
2023-02-15T09:29:10.072Z,3.85
2023-02-15T09:32:32.525Z,3.90
2023-02-15T09:35:54.455Z,3.91
2023-02-15T09:39:17.560Z,3.93
2023-02-15T09:42:55.412Z,3.97
2023-02-15T09:46:24.397Z,4.02
2023-02-15T09:49:52.225Z,4.06
2023-02-15T09:53:22.772Z,4.07
2023-02-15T09:56:49.289Z,4.20
2023-02-15T10:00:17.538Z,4.30
2023-02-15T10:03:43.981Z,4.33
2023-02-15T10:07:14.776Z,4.36
2023-02-15T10:10:45.737Z,4.38
2023-02-15T10:14:18.673Z,4.41
2023-02-15T10:17:52.485Z,4.41
2023-02-15T10:21:22.683Z,4.40
2023-02-15T10:24:53.706Z,4.42
2023-02-15T10:28:20.879Z,4.44
2023-02-15T10:31:49.021Z,4.43
2023-02-15T10:35:18.093Z,4.41
2023-02-15T10:38:43.826Z,4.41
2023-02-15T10:42:13.146Z,4.42
2023-02-15T10:45:46.428Z,4.43
2023-02-15T10:49:25.047Z,4.42
2023-02-15T10:52:58.638Z,4.43
2023-02-15T10:56:28.019Z,4.44
2023-02-15T11:00:06.933Z,4.45
2023-02-15T11:03:42.211Z,4.42
2023-02-15T11:07:15.464Z,4.40
2023-02-15T11:10:40.690Z,4.39
2023-02-15T11:14:09.985Z,4.44
2023-02-15T11:17:39.027Z,4.47
2023-02-15T11:21:04.765Z,4.51
2023-02-15T11:24:30.788Z,4.54
2023-02-15T11:27:57.341Z,4.62
2023-02-15T11:31:21.731Z,4.70
2023-02-15T11:34:49.364Z,4.75
2023-02-15T11:38:16.926Z,4.80
2023-02-15T11:41:42.571Z,4.85
2023-02-15T11:45:08.433Z,4.86
2023-02-15T11:48:31.365Z,4.90
2023-02-15T11:51:54.439Z,4.95
2023-02-15T11:55:20.754Z,4.95
2023-02-15T11:58:45.996Z,4.94
2023-02-15T12:02:16.202Z,4.96
2023-02-15T12:05:41.961Z,4.97
2023-02-15T12:09:07.828Z,4.98
2023-02-15T12:12:32.147Z,5.01
2023-02-15T12:15:55.528Z,5.04
2023-02-15T12:19:30.058Z,5.08
2023-02-15T12:22:54.540Z,5.08
2023-02-15T12:26:24.496Z,5.08
2023-02-15T12:29:48.506Z,5.04
2023-02-15T12:33:16.250Z,5.01
2023-02-15T12:36:46.952Z,5.03
2023-02-15T12:40:21.053Z,5.06
2023-02-15T12:43:43.749Z,5.08
2023-02-15T12:47:07.737Z,5.11
2023-02-15T12:50:36.338Z,5.14
2023-02-15T12:54:01.494Z,5.18
2023-02-15T12:57:26.448Z,5.19
2023-02-15T13:00:49.025Z,5.21
2023-02-15T13:04:19.838Z,5.23
2023-02-15T13:07:50.122Z,5.23
2023-02-15T13:11:12.934Z,5.23
2023-02-15T13:14:35.676Z,5.32
2023-02-15T13:18:03.044Z,5.48
2023-02-15T13:21:27.931Z,5.63
2023-02-15T13:24:55.778Z,5.70
2023-02-15T13:28:19.799Z,5.74
2023-02-15T13:31:43.447Z,5.80
2023-02-15T13:35:16.387Z,5.84
2023-02-15T13:38:47.477Z,5.81
2023-02-15T13:42:21.644Z,5.76
2023-02-15T13:45:54.950Z,5.68
2023-02-15T13:49:25.771Z,5.64
2023-02-15T13:52:52.904Z,5.59
2023-02-15T13:56:19.665Z,5.55
2023-02-15T13:59:47.351Z,5.45
2023-02-15T14:03:24.180Z,5.31
2023-02-15T14:07:00.561Z,5.27
2023-02-15T14:10:34.761Z,5.24
2023-02-15T14:14:12.974Z,5.28
2023-02-15T14:17:42.787Z,5.32
2023-02-15T14:21:09.048Z,5.36
2023-02-15T14:24:35.550Z,5.36
2023-02-15T14:28:04.943Z,5.38
2023-02-15T14:31:31.845Z,5.41
2023-02-15T14:34:57.039Z,5.45
2023-02-15T14:38:24.121Z,5.46
2023-02-15T14:41:49.214Z,5.49
2023-02-15T14:45:18.396Z,5.50
2023-02-15T14:48:46.920Z,5.54
2023-02-15T14:52:12.941Z,5.56
2023-02-15T14:55:38.785Z,5.53
2023-02-15T14:59:10.552Z,5.47
2023-02-15T15:02:43.231Z,5.40
2023-02-15T15:06:07.038Z,5.29
2023-02-15T15:09:31.453Z,5.22
2023-02-15T15:12:55.144Z,5.15
2023-02-15T15:16:32.226Z,5.05
2023-02-15T15:20:03.679Z,4.95
2023-02-15T15:23:43.377Z,4.89
2023-02-15T15:27:27.042Z,4.80
2023-02-15T15:30:52.799Z,4.76
2023-02-15T15:34:29.208Z,4.71
2023-02-15T15:38:07.308Z,4.68
2023-02-15T15:41:41.037Z,4.65
2023-02-15T15:45:23.728Z,4.60
2023-02-15T15:48:47.101Z,4.54
2023-02-15T15:52:14.284Z,4.50
2023-02-15T15:55:36.597Z,4.46
2023-02-15T15:59:01.211Z,4.40
2023-02-15T16:02:24.170Z,4.38
2023-02-15T16:05:46.699Z,4.38
2023-02-15T16:09:18.574Z,4.36
2023-02-15T16:12:41.880Z,4.36
2023-02-15T16:16:08.982Z,4.33
2023-02-15T16:19:33.691Z,4.34
2023-02-15T16:23:06.786Z,4.37
2023-02-15T16:26:45.734Z,4.37
2023-02-15T16:30:19.935Z,4.35
2023-02-15T16:33:43.825Z,4.31
2023-02-15T16:37:17.427Z,4.30
2023-02-15T16:40:42.405Z,4.26
2023-02-15T16:44:07.669Z,4.20
2023-02-15T16:47:31.941Z,4.14
2023-02-15T16:50:57.527Z,4.10
2023-02-15T16:54:21.720Z,4.01
2023-02-15T16:57:44.796Z,3.97
2023-02-15T17:01:10.095Z,3.94
2023-02-15T17:04:35.431Z,3.89
2023-02-15T17:08:13.176Z,3.84
2023-02-15T17:11:36.473Z,3.78
2023-02-15T17:15:00.237Z,3.73
2023-02-15T17:18:24.710Z,3.68
2023-02-15T17:21:50.511Z,3.64
2023-02-15T17:25:20.322Z,3.59
2023-02-15T17:28:48.274Z,3.54
2023-02-15T17:32:17.113Z,3.49
2023-02-15T17:35:42.229Z,3.47
2023-02-15T17:39:08.384Z,3.46
2023-02-15T17:42:33.545Z,3.43
2023-02-15T17:45:58.094Z,3.39
2023-02-15T17:49:29.848Z,3.33
2023-02-15T17:52:56.071Z,3.30
2023-02-15T17:56:23.170Z,3.28
2023-02-15T18:00:05.205Z,3.27
2023-02-15T18:03:57.953Z,3.23
2023-02-15T18:07:40.817Z,3.25
2023-02-15T18:11:22.254Z,3.28
2023-02-15T18:14:44.665Z,3.34
2023-02-15T18:18:10.492Z,3.38
2023-02-15T18:21:33.607Z,3.42
2023-02-15T18:24:55.889Z,3.44
2023-02-15T18:28:18.668Z,3.48
2023-02-15T18:31:42.503Z,3.49
2023-02-15T18:35:05.445Z,3.48
2023-02-15T18:38:28.222Z,3.45
2023-02-15T18:41:50.811Z,3.40
2023-02-15T18:45:16.430Z,3.36
2023-02-15T18:48:39.334Z,3.31
2023-02-15T18:52:05.265Z,3.26
2023-02-15T18:55:29.637Z,3.21
2023-02-15T18:58:52.351Z,3.14
2023-02-15T19:02:17.936Z,3.07
2023-02-15T19:05:44.330Z,3.00
2023-02-15T19:09:10.149Z,2.92
2023-02-15T19:12:34.836Z,2.84
2023-02-15T19:16:01.639Z,2.75
2023-02-15T19:19:27.704Z,2.68
2023-02-15T19:22:53.086Z,2.64
2023-02-15T19:26:25.687Z,2.59
2023-02-15T19:29:51.931Z,2.51
2023-02-15T19:33:18.862Z,2.45
2023-02-15T19:36:41.564Z,2.40
2023-02-15T19:40:05.845Z,2.33
2023-02-15T19:43:29.744Z,2.33
2023-02-15T19:46:54.117Z,2.31
2023-02-15T19:50:17.708Z,2.31
2023-02-15T19:53:41.604Z,2.33
2023-02-15T19:57:04.229Z,2.33
2023-02-15T20:00:27.987Z,2.36
2023-02-15T20:03:51.529Z,2.38
2023-02-15T20:07:21.711Z,2.43
2023-02-15T20:10:45.071Z,2.49
2023-02-15T20:14:12.651Z,2.56
2023-02-15T20:17:35.816Z,2.56
2023-02-15T20:21:01.738Z,2.54
2023-02-15T20:24:28.283Z,2.54
2023-02-15T20:27:51.215Z,2.56
2023-02-15T20:31:16.157Z,2.55
2023-02-15T20:34:41.985Z,2.50
2023-02-15T20:38:05.595Z,2.44
2023-02-15T20:41:37.516Z,2.39
2023-02-15T20:44:59.849Z,2.31
2023-02-15T20:48:23.432Z,2.24
2023-02-15T20:51:47.613Z,2.19
2023-02-15T20:55:16.143Z,2.15
2023-02-15T20:58:41.552Z,2.10
2023-02-15T21:02:15.167Z,2.03
2023-02-15T21:05:40.438Z,2.00
2023-02-15T21:09:03.563Z,1.95
2023-02-15T21:12:26.673Z,1.91
2023-02-15T21:15:49.628Z,1.85
2023-02-15T21:19:15.712Z,1.80
2023-02-15T21:22:39.882Z,1.78
2023-02-15T21:26:02.506Z,1.77
2023-02-15T21:29:26.182Z,1.74
2023-02-15T21:32:48.310Z,1.70
2023-02-15T21:36:14.873Z,1.69
2023-02-15T21:39:37.062Z,1.70
2023-02-15T21:43:17.928Z,1.69
2023-02-15T21:46:58.157Z,1.73
2023-02-15T21:50:40.456Z,1.79
2023-02-15T21:54:03.642Z,1.87
2023-02-15T21:57:25.901Z,1.90
2023-02-15T22:00:49.102Z,1.95
2023-02-15T22:04:14.491Z,1.99
2023-02-15T22:07:36.683Z,2.04
2023-02-15T22:10:59.062Z,2.09
2023-02-15T22:14:34.751Z,2.13
2023-02-15T22:17:58.250Z,2.14
2023-02-15T22:21:21.826Z,2.14
2023-02-15T22:24:45.705Z,2.15
2023-02-15T22:28:16.230Z,2.13
2023-02-15T22:31:39.413Z,2.08
2023-02-15T22:35:01.779Z,1.99
2023-02-15T22:38:24.497Z,1.91
2023-02-15T22:41:49.683Z,1.84
2023-02-15T22:45:16.079Z,1.73
2023-02-15T22:48:39.368Z,1.70
2023-02-15T22:52:02.584Z,1.66
2023-02-15T22:55:26.788Z,1.60
2023-02-15T22:58:49.946Z,1.54
2023-02-15T23:02:14.563Z,1.49
2023-02-15T23:05:37.568Z,1.45
2023-02-15T23:09:00.278Z,1.42
2023-02-15T23:12:25.140Z,1.37
2023-02-15T23:15:49.243Z,1.34
2023-02-15T23:19:12.883Z,1.32
2023-02-15T23:22:35.530Z,1.29
2023-02-15T23:25:58.382Z,1.29
2023-02-15T23:29:22.396Z,1.31
2023-02-15T23:32:45.998Z,1.35
2023-02-15T23:36:20.477Z,1.40
2023-02-15T23:40:00.844Z,1.47
2023-02-15T23:43:23.198Z,1.55
2023-02-15T23:46:47.037Z,1.63
2023-02-15T23:50:18.367Z,1.72
2023-02-15T23:53:42.738Z,1.82
2023-02-15T23:57:08.371Z,1.89
